カンクン の空港の天気 - METARとTAF

カンクン国際空港 ( MMUN / CUN ) - メキシコ キンタナ・ロー州カンクン
飛行場実況気象(Metar)
観測時間01/19 04:47 CST (01/19 10:47 UTC)
風向・風速東南東 3m/s
視程10km以上
天気現象
全天の4割程度の雲 雲底高度 460m
気温22℃
湿度88%
気圧1015hPa
METARMMUN 191047Z 12005KT 7SM SCT015 22/20 A2997 RMK 8/500
過去の天気等 Google飛行場航空写真 Wunderground天気予報

過去48時間のMETAR

飛行場予報(TAF)
発表時間: 1/18 22:40 CST (1/19 04:40 UTC)
予報対象時間: 19日0時 CST ~ 20日6時 CST
風向・風速東 3m/s
視程10km以上
全天の4割程度の雲 雲底高度 460m
19日10時 CST から
風向・風速南東 5m/s
視程10km以上
全天の4割程度の雲 雲底高度 460m
全天の4割程度の雲 雲底高度 7620m
19日19時 CST から
風向・風速南東 3m/s
視程10km以上
全天の4割程度の雲 雲底高度 460m
全天の8割程度の雲 雲底高度 7620m
20日0時 CST から
風向・風速西北西 5m/s
視程10km以上
全天の4割程度の雲 雲底高度 460m
全天の8割程度の雲 雲底高度 7620m
20日2時 CST ~ 20日6時 CST に一時的に
視程8050m
天気現象
全天の8割程度の雲 雲底高度 460m
TAF MMUN 190440Z 1906/2012 10005KT P6SM SCT015 TX26/1918Z TN19/1912Z
FM191600 13010KT P6SM SCT015 SCT250
FM200100 13005KT P6SM SCT015 BKN250
FM200600 30010KT P6SM SCT015 BKN250
TEMPO 2008/2012 5SM RA BKN015